createdAt,value
2022-10-12T00:00:42.012Z,13.91
2022-10-12T00:03:13.308Z,13.74
2022-10-12T00:05:43.594Z,13.39
2022-10-12T00:08:16.209Z,13.15
2022-10-12T00:10:47.226Z,13.15
2022-10-12T00:13:17.206Z,13.12
2022-10-12T00:15:47.267Z,13.09
2022-10-12T00:18:17.254Z,13.04
2022-10-12T00:20:47.879Z,13.06
2022-10-12T00:23:20.447Z,13.04
2022-10-12T00:25:50.432Z,12.97
2022-10-12T00:28:20.469Z,12.74
2022-10-12T00:30:50.489Z,12.54
2022-10-12T00:33:20.454Z,12.37
2022-10-12T00:35:50.407Z,12.32
2022-10-12T00:38:23.069Z,12.37
2022-10-12T00:40:53.541Z,12.47
2022-10-12T00:43:34.434Z,12.33
2022-10-12T00:46:09.973Z,12.29
2022-10-12T00:48:40.594Z,12.37
2022-10-12T00:51:12.603Z,12.28
2022-10-12T00:53:52.389Z,12.16
2022-10-12T00:56:28.419Z,12.18
2022-10-12T00:59:02.745Z,12.06
2022-10-12T01:01:37.578Z,11.99
2022-10-12T01:04:10.187Z,11.93
2022-10-12T01:06:40.445Z,11.92
2022-10-12T01:09:13.027Z,11.94
2022-10-12T01:11:43.111Z,11.99
2022-10-12T01:14:13.489Z,12.02
2022-10-12T01:16:53.341Z,12.01
2022-10-12T01:19:57.283Z,11.90
2022-10-12T01:22:28.227Z,11.92
2022-10-12T01:25:11.373Z,12.00
2022-10-12T01:27:50.328Z,12.06
2022-10-12T01:30:25.921Z,11.92
2022-10-12T01:33:25.132Z,11.89
2022-10-12T01:36:08.090Z,11.93
2022-10-12T01:38:50.973Z,11.87
2022-10-12T01:41:27.748Z,11.79
2022-10-12T01:43:57.756Z,11.76
2022-10-12T01:46:49.321Z,11.73
2022-10-12T01:49:26.547Z,11.58
2022-10-12T01:52:24.133Z,11.57
2022-10-12T01:55:19.642Z,11.49
2022-10-12T01:58:23.044Z,11.41
2022-10-12T02:01:05.224Z,11.36
2022-10-12T02:03:46.172Z,11.40
2022-10-12T02:06:21.308Z,11.39
2022-10-12T02:09:02.929Z,11.41
2022-10-12T02:11:37.140Z,11.32
2022-10-12T02:14:18.629Z,11.31
2022-10-12T02:16:55.833Z,11.16
2022-10-12T02:19:33.763Z,11.03
2022-10-12T02:22:08.621Z,10.93
2022-10-12T02:24:47.174Z,10.84
2022-10-12T02:27:21.080Z,10.77
2022-10-12T02:29:52.237Z,10.65
2022-10-12T02:32:29.844Z,10.64
2022-10-12T02:35:11.551Z,10.63
2022-10-12T02:37:47.839Z,10.61
2022-10-12T02:40:26.974Z,10.61
2022-10-12T02:43:10.531Z,10.60
2022-10-12T02:45:46.172Z,10.58
2022-10-12T02:48:23.289Z,10.55
2022-10-12T02:50:59.846Z,10.64
2022-10-12T02:53:33.128Z,10.90
2022-10-12T02:56:07.446Z,11.03
2022-10-12T02:58:37.708Z,10.94
2022-10-12T03:01:08.214Z,11.04
2022-10-12T03:03:38.275Z,11.11
2022-10-12T03:06:11.633Z,11.08
2022-10-12T03:08:41.806Z,11.19
2022-10-12T03:11:16.223Z,11.15
2022-10-12T03:13:46.231Z,11.27
2022-10-12T03:16:16.325Z,11.31
2022-10-12T03:18:46.329Z,11.30
2022-10-12T03:21:19.726Z,11.14
2022-10-12T03:23:49.829Z,11.09
2022-10-12T03:26:19.891Z,11.17
2022-10-12T03:28:50.176Z,11.41
2022-10-12T03:31:20.798Z,11.37
2022-10-12T03:33:50.837Z,11.42
2022-10-12T03:36:23.466Z,11.58
2022-10-12T03:38:53.504Z,11.59
2022-10-12T03:41:23.526Z,11.67
2022-10-12T03:43:53.746Z,11.81
2022-10-12T03:46:23.754Z,12.15
2022-10-12T03:48:53.858Z,12.17
2022-10-12T03:51:27.144Z,12.15
2022-10-12T03:53:57.162Z,12.03
2022-10-12T03:56:27.260Z,11.99
2022-10-12T03:58:57.297Z,11.93
2022-10-12T04:01:27.526Z,11.87
2022-10-12T04:03:58.057Z,11.72
2022-10-12T04:06:30.701Z,11.84
2022-10-12T04:09:00.691Z,11.80
2022-10-12T04:11:30.907Z,11.99
2022-10-12T04:14:00.947Z,12.02
2022-10-12T04:16:31.261Z,11.96
2022-10-12T04:19:01.471Z,11.95
2022-10-12T04:21:34.923Z,12.05
2022-10-12T04:24:05.106Z,12.12
2022-10-12T04:26:35.323Z,12.05
2022-10-12T04:29:05.389Z,12.03
2022-10-12T04:31:35.510Z,11.99
2022-10-12T04:34:05.554Z,12.00
2022-10-12T04:36:38.335Z,11.99
2022-10-12T04:39:08.405Z,12.03
2022-10-12T04:41:39.899Z,12.02
2022-10-12T04:44:10.823Z,12.06
2022-10-12T04:46:40.984Z,12.01
2022-10-12T04:49:11.019Z,12.08
2022-10-12T04:51:43.660Z,12.09
2022-10-12T04:54:14.452Z,12.17
2022-10-12T04:56:47.895Z,12.17
2022-10-12T04:59:18.497Z,12.22
2022-10-12T05:01:48.851Z,12.26
2022-10-12T05:04:18.989Z,12.22
2022-10-12T05:06:51.652Z,12.20
2022-10-12T05:09:22.136Z,12.22
2022-10-12T05:11:52.112Z,12.19
2022-10-12T05:14:22.121Z,12.14
2022-10-12T05:16:52.113Z,12.13
2022-10-12T05:19:22.175Z,12.13
2022-10-12T05:21:55.798Z,12.17
2022-10-12T05:24:25.793Z,12.18
2022-10-12T05:26:56.660Z,12.19
2022-10-12T05:29:26.758Z,12.26
2022-10-12T05:31:56.969Z,12.25
2022-10-12T05:34:27.104Z,12.25
2022-10-12T05:37:00.367Z,12.20
2022-10-12T05:39:30.504Z,12.20
2022-10-12T05:42:00.489Z,12.25
2022-10-12T05:44:30.473Z,12.35
2022-10-12T05:47:00.597Z,12.38
2022-10-12T05:49:31.175Z,12.43
2022-10-12T05:52:04.093Z,12.42
2022-10-12T05:54:34.099Z,12.46
2022-10-12T05:57:04.209Z,12.46
2022-10-12T05:59:34.258Z,12.54
2022-10-12T06:02:04.554Z,12.64
2022-10-12T06:04:34.633Z,12.68
2022-10-12T06:07:07.343Z,12.73
2022-10-12T06:09:38.996Z,12.71
2022-10-12T06:12:09.858Z,12.72
2022-10-12T06:14:39.842Z,12.72
2022-10-12T06:17:09.910Z,12.77
2022-10-12T06:19:40.221Z,12.85
2022-10-12T06:22:12.946Z,12.87
2022-10-12T06:24:42.897Z,12.88
2022-10-12T06:27:14.009Z,12.84
2022-10-12T06:29:44.060Z,12.93
2022-10-12T06:32:14.071Z,13.02
2022-10-12T06:34:44.097Z,12.99
2022-10-12T06:37:44.557Z,13.06
2022-10-12T06:40:09.809Z,13.21
2022-10-12T06:42:40.149Z,13.33
2022-10-12T06:45:12.130Z,13.38
2022-10-12T06:47:42.290Z,13.46
2022-10-12T06:50:13.509Z,13.54
2022-10-12T06:52:46.294Z,13.67
2022-10-12T06:55:16.530Z,13.73
2022-10-12T06:57:46.696Z,13.76
2022-10-12T07:00:18.575Z,13.73
2022-10-12T07:02:51.868Z,13.97
2022-10-12T07:05:23.257Z,14.22
2022-10-12T07:07:56.386Z,14.45
2022-10-12T07:10:28.263Z,14.57
2022-10-12T07:12:58.362Z,14.85
2022-10-12T07:15:28.508Z,15.03
2022-10-12T07:17:58.494Z,15.10
2022-10-12T07:20:28.470Z,15.15
2022-10-12T07:23:01.093Z,15.00
2022-10-12T07:25:31.146Z,15.15
2022-10-12T07:28:01.145Z,15.24
2022-10-12T07:30:31.150Z,15.18
2022-10-12T07:33:01.142Z,15.22
2022-10-12T07:35:31.133Z,15.37
2022-10-12T07:38:03.812Z,15.46
2022-10-12T07:40:34.625Z,15.61
2022-10-12T07:43:15.604Z,15.82
2022-10-12T07:45:46.880Z,16.10
2022-10-12T07:48:16.934Z,16.17
2022-10-12T07:50:46.986Z,16.34
2022-10-12T07:53:19.714Z,16.34
2022-10-12T07:55:50.238Z,16.69
2022-10-12T07:58:20.236Z,16.81
2022-10-12T08:00:50.307Z,16.95
2022-10-12T08:03:20.454Z,17.38
2022-10-12T08:05:50.783Z,17.58
2022-10-12T08:08:23.853Z,17.83
2022-10-12T08:10:53.853Z,18.22
2022-10-12T08:13:25.680Z,18.49
2022-10-12T08:15:55.667Z,18.77
2022-10-12T08:18:25.822Z,18.93
2022-10-12T08:20:56.266Z,18.71
2022-10-12T08:23:29.351Z,18.80
2022-10-12T08:26:16.133Z,18.91
2022-10-12T08:28:46.808Z,19.08
2022-10-12T08:31:19.637Z,19.33
2022-10-12T08:33:49.668Z,19.56
2022-10-12T08:36:19.732Z,20.07
2022-10-12T08:38:57.831Z,20.44
2022-10-12T08:41:43.312Z,20.40
2022-10-12T08:44:38.787Z,20.28
2022-10-12T08:47:17.960Z,20.45
2022-10-12T08:49:50.322Z,20.54
2022-10-12T08:52:33.468Z,20.72
2022-10-12T08:55:22.339Z,20.45
2022-10-12T08:57:52.527Z,20.62
2022-10-12T09:00:23.085Z,20.13
2022-10-12T09:03:11.774Z,20.29
2022-10-12T09:05:51.708Z,20.19
2022-10-12T09:12:18.664Z,20.46
2022-10-12T09:14:52.701Z,20.47
2022-10-12T09:17:32.902Z,20.17
2022-10-12T09:20:09.956Z,20.03
2022-10-12T09:22:42.038Z,19.87
2022-10-12T09:25:17.419Z,19.80
2022-10-12T09:27:50.802Z,19.77
2022-10-12T09:30:23.683Z,19.61
2022-10-12T09:35:51.124Z,19.73
2022-10-12T09:38:21.906Z,19.45
2022-10-12T09:40:51.901Z,19.45
2022-10-12T09:43:22.073Z,19.49
2022-10-12T09:45:52.739Z,19.28
2022-10-12T09:48:26.520Z,18.96
2022-10-12T09:51:03.363Z,18.79
2022-10-12T09:53:37.747Z,18.92
2022-10-12T09:56:16.017Z,18.90
2022-10-12T09:58:56.521Z,19.05
2022-10-12T10:01:43.853Z,18.90
2022-10-12T10:04:20.109Z,18.80
2022-10-12T10:06:53.537Z,18.70
2022-10-12T10:09:36.161Z,18.83
2022-10-12T10:15:59.402Z,18.92
2022-10-12T10:41:22.925Z,19.61
2022-10-12T10:43:53.599Z,19.76
2022-10-12T10:46:31.100Z,19.89
2022-10-12T10:49:07.000Z,20.00
2022-10-12T10:54:42.802Z,20.51
2022-10-12T10:57:20.101Z,20.53
2022-10-12T11:00:02.230Z,20.36
2022-10-12T11:05:39.263Z,20.85
2022-10-12T11:08:20.248Z,20.75
2022-10-12T11:10:59.057Z,20.88
2022-10-12T11:13:49.439Z,21.25
2022-10-12T11:19:23.525Z,22.23
2022-10-12T11:25:11.574Z,21.83
2022-10-12T11:27:44.452Z,21.93
2022-10-12T11:30:21.158Z,21.77
2022-10-12T11:35:47.808Z,21.20
2022-10-12T11:38:27.097Z,21.20
2022-10-12T11:44:10.132Z,21.28
2022-10-12T11:46:47.049Z,21.31
2022-10-12T11:49:32.255Z,21.46
2022-10-12T11:55:23.679Z,21.29
2022-10-12T11:57:57.377Z,21.27
2022-10-12T12:03:33.349Z,21.29
2022-10-12T12:06:50.223Z,20.53
2022-10-12T12:09:35.811Z,21.27
2022-10-12T12:15:22.726Z,20.52
2022-10-12T12:21:10.083Z,21.19
2022-10-12T12:23:46.237Z,20.95
2022-10-12T12:29:24.775Z,21.89
2022-10-12T12:31:59.761Z,22.03
2022-10-12T12:34:31.315Z,22.19
2022-10-12T12:37:12.326Z,22.30
2022-10-12T12:39:45.899Z,22.30
2022-10-12T12:45:55.505Z,21.95
2022-10-12T12:51:17.405Z,21.37
2022-10-12T12:53:53.873Z,21.63
2022-10-12T12:56:35.620Z,21.73
2022-10-12T13:09:12.171Z,22.86
2022-10-12T13:12:26.641Z,23.05
2022-10-12T13:15:32.667Z,22.99
2022-10-12T13:21:23.389Z,22.89
2022-10-12T13:24:03.872Z,22.14
2022-10-12T13:26:35.181Z,21.13
2022-10-12T13:29:18.109Z,21.05
2022-10-12T13:32:07.083Z,20.79
2022-10-12T13:37:19.766Z,20.65
2022-10-12T13:39:50.467Z,20.23
2022-10-12T13:42:28.751Z,20.08
2022-10-12T13:45:00.077Z,19.57
2022-10-12T13:47:33.355Z,19.41
2022-10-12T13:50:03.747Z,19.33
2022-10-12T13:52:38.946Z,19.29
2022-10-12T13:55:34.184Z,18.97
2022-10-12T14:00:51.201Z,19.33
2022-10-12T14:06:04.885Z,19.91
2022-10-12T14:08:38.162Z,20.23
2022-10-12T14:16:40.241Z,20.47
2022-10-12T14:19:34.607Z,20.33
2022-10-12T14:22:06.220Z,20.40
2022-10-12T14:27:35.210Z,20.59
2022-10-12T14:30:20.322Z,20.98
2022-10-12T14:32:53.940Z,21.15
2022-10-12T14:35:30.267Z,20.80
2022-10-12T14:38:00.472Z,20.62
2022-10-12T14:46:03.150Z,19.99
2022-10-12T14:48:33.133Z,19.87
2022-10-12T14:51:03.225Z,19.58
2022-10-12T14:53:33.587Z,19.20
2022-10-12T14:56:03.666Z,19.10
2022-10-12T14:58:33.697Z,18.68
2022-10-12T15:01:06.458Z,18.56
2022-10-12T15:03:37.721Z,18.50
2022-10-12T15:06:08.164Z,18.41
2022-10-12T15:08:38.164Z,18.15
2022-10-12T15:13:50.845Z,17.50
2022-10-12T15:16:26.248Z,17.34
2022-10-12T15:18:56.700Z,17.35
2022-10-12T15:21:26.709Z,17.23
2022-10-12T15:23:57.140Z,17.12
2022-10-12T15:26:27.186Z,16.96
2022-10-12T15:28:59.982Z,16.85
2022-10-12T15:31:30.228Z,16.79
2022-10-12T15:34:00.330Z,16.79
2022-10-12T15:36:30.327Z,16.80
2022-10-12T15:39:00.347Z,16.77
2022-10-12T15:41:30.778Z,16.67
2022-10-12T15:44:03.537Z,16.62
2022-10-12T15:46:33.586Z,16.61
2022-10-12T15:49:03.659Z,16.52
2022-10-12T15:51:36.306Z,16.39
2022-10-12T15:54:06.425Z,16.39
2022-10-12T15:56:38.723Z,16.36
2022-10-12T15:59:11.615Z,16.28
2022-10-12T16:01:43.229Z,16.19
2022-10-12T16:04:17.322Z,16.09
2022-10-12T16:06:47.375Z,15.86
2022-10-12T16:09:17.436Z,15.79
2022-10-12T16:11:47.556Z,15.65
2022-10-12T16:14:20.237Z,15.52
2022-10-12T16:16:50.266Z,15.36
2022-10-12T16:19:20.274Z,15.25
2022-10-12T16:21:50.333Z,15.17
2022-10-12T16:24:20.503Z,14.98
2022-10-12T16:26:50.568Z,14.91
2022-10-12T16:29:23.273Z,14.75
2022-10-12T16:31:53.314Z,14.64
2022-10-12T16:34:23.463Z,14.46
2022-10-12T16:36:55.452Z,14.31
2022-10-12T16:39:27.747Z,14.13
2022-10-12T16:41:57.821Z,14.04
2022-10-12T16:44:30.541Z,13.96
2022-10-12T16:47:01.976Z,13.93
2022-10-12T16:49:32.121Z,13.81
2022-10-12T16:52:02.194Z,13.71
2022-10-12T16:54:32.362Z,13.63
2022-10-12T16:57:03.184Z,13.60
2022-10-12T16:59:35.991Z,13.56
2022-10-12T17:02:06.077Z,13.45
2022-10-12T17:04:36.355Z,13.32
2022-10-12T17:07:06.577Z,13.32
2022-10-12T17:09:36.623Z,13.16
2022-10-12T17:12:07.076Z,13.10
2022-10-12T17:14:39.856Z,13.02
2022-10-12T17:17:09.901Z,13.00
2022-10-12T17:19:41.553Z,12.91
2022-10-12T17:22:14.367Z,12.82
2022-10-12T17:24:45.908Z,12.79
2022-10-12T17:27:17.216Z,12.82
2022-10-12T17:29:50.095Z,12.79
2022-10-12T17:32:20.149Z,12.78
2022-10-12T17:34:50.153Z,12.62
2022-10-12T17:37:21.960Z,12.64
2022-10-12T17:39:52.443Z,12.63
2022-10-12T17:42:23.187Z,12.56
2022-10-12T17:44:55.809Z,12.53
2022-10-12T17:47:25.861Z,12.58
2022-10-12T17:49:55.845Z,12.63
2022-10-12T17:52:25.908Z,12.57
2022-10-12T17:54:55.964Z,12.52
2022-10-12T17:57:25.982Z,12.45
2022-10-12T17:59:58.596Z,12.44
2022-10-12T18:02:28.767Z,12.34
2022-10-12T18:04:58.784Z,12.27
2022-10-12T18:07:28.862Z,12.21
2022-10-12T18:12:28.881Z,12.22
2022-10-12T18:15:01.612Z,12.25
2022-10-12T18:17:31.730Z,12.26
2022-10-12T18:20:01.850Z,12.22
2022-10-12T18:22:32.640Z,12.26
2022-10-12T18:25:02.684Z,12.19
2022-10-12T18:27:32.727Z,12.16
2022-10-12T18:30:05.435Z,12.14
2022-10-12T18:32:35.499Z,12.15
2022-10-12T18:35:05.656Z,12.09
2022-10-12T18:37:35.765Z,12.06
2022-10-12T18:40:06.029Z,12.03
2022-10-12T18:42:36.029Z,12.02
2022-10-12T18:45:09.867Z,12.03
2022-10-12T18:47:40.475Z,12.01
2022-10-12T18:50:12.293Z,11.87
2022-10-12T18:52:42.367Z,11.76
2022-10-12T18:55:12.958Z,11.60
2022-10-12T18:57:43.057Z,11.50
2022-10-12T19:00:16.712Z,11.56
2022-10-12T19:02:46.785Z,11.52
2022-10-12T19:05:16.834Z,11.47
2022-10-12T19:07:46.893Z,11.47
2022-10-12T19:10:17.019Z,11.33
2022-10-12T19:12:47.072Z,11.35
2022-10-12T19:15:19.944Z,11.27
2022-10-12T19:17:50.036Z,11.18
2022-10-12T19:20:20.365Z,11.14
2022-10-12T19:22:50.372Z,11.04
2022-10-12T19:25:21.914Z,11.03
2022-10-12T19:27:52.047Z,10.96
2022-10-12T19:30:24.755Z,10.90
2022-10-12T19:32:54.894Z,10.76
2022-10-12T19:35:25.115Z,10.76
2022-10-12T19:37:55.151Z,10.73
2022-10-12T19:40:25.315Z,10.74
2022-10-12T19:42:55.330Z,10.62
2022-10-12T19:45:28.269Z,10.65
2022-10-12T19:47:58.392Z,10.58
2022-10-12T19:50:28.445Z,10.58
2022-10-12T19:52:58.525Z,10.55
2022-10-12T19:55:28.587Z,10.46
2022-10-12T19:57:58.676Z,10.38
2022-10-12T20:00:31.553Z,10.49
2022-10-12T20:03:01.588Z,10.46
2022-10-12T20:05:31.630Z,10.36
2022-10-12T20:08:01.678Z,10.35
2022-10-12T20:10:31.784Z,10.27
2022-10-12T20:13:01.906Z,10.24
2022-10-12T20:15:35.512Z,10.21
2022-10-12T20:18:05.920Z,10.22
2022-10-12T20:20:35.993Z,10.23
2022-10-12T20:23:06.084Z,10.19
2022-10-12T20:25:36.154Z,10.25
2022-10-12T20:28:06.665Z,10.26
2022-10-12T20:30:39.971Z,10.45
2022-10-12T20:33:10.733Z,10.44
2022-10-12T20:35:40.815Z,10.39
2022-10-12T20:38:10.859Z,10.33
2022-10-12T20:40:40.995Z,10.26
2022-10-12T20:43:11.074Z,10.24
2022-10-12T20:45:44.011Z,10.11
2022-10-12T20:48:14.038Z,10.21
2022-10-12T20:50:44.114Z,10.41
2022-10-12T20:53:14.160Z,10.55
2022-10-12T20:55:44.378Z,10.67
2022-10-12T20:58:14.363Z,10.78
2022-10-12T21:00:47.043Z,10.84
2022-10-12T21:03:17.177Z,10.70
2022-10-12T21:05:47.239Z,10.57
2022-10-12T21:08:17.302Z,10.61
2022-10-12T21:10:49.638Z,10.65
2022-10-12T21:13:19.636Z,10.67
2022-10-12T21:15:56.715Z,10.49
2022-10-12T21:18:27.592Z,10.35
2022-10-12T21:21:02.587Z,10.28
2022-10-12T21:23:32.650Z,10.23
2022-10-12T21:26:10.855Z,10.25
2022-10-12T21:28:41.040Z,10.22
2022-10-12T21:31:15.248Z,9.97
2022-10-12T21:33:45.756Z,9.84
2022-10-12T21:36:18.825Z,9.74
2022-10-12T21:38:50.158Z,9.69
2022-10-12T21:41:22.892Z,9.69
2022-10-12T21:43:54.283Z,9.55
2022-10-12T21:46:30.255Z,9.45
2022-10-12T21:49:02.460Z,9.30
2022-10-12T21:51:34.604Z,9.15
2022-10-12T21:54:04.778Z,9.11
2022-10-12T21:56:38.555Z,9.13
2022-10-12T21:59:09.522Z,9.04
2022-10-12T22:01:43.221Z,9.05
2022-10-12T22:04:17.441Z,9.20
2022-10-12T22:06:47.699Z,9.32
2022-10-12T22:09:20.404Z,9.33
2022-10-12T22:11:51.072Z,9.17
2022-10-12T22:14:22.119Z,9.09
2022-10-12T22:16:54.736Z,9.28
2022-10-12T22:19:25.369Z,9.43
2022-10-12T22:21:56.250Z,9.45
2022-10-12T22:24:30.838Z,9.32
2022-10-12T22:27:01.451Z,9.09
2022-10-12T22:29:31.496Z,8.99
2022-10-12T22:32:05.622Z,8.99
2022-10-12T22:34:35.825Z,8.90
2022-10-12T22:37:05.885Z,8.80
2022-10-12T22:39:35.987Z,8.83
2022-10-12T22:42:06.204Z,8.82
2022-10-12T22:44:36.262Z,8.78
2022-10-12T22:47:08.982Z,8.71
2022-10-12T22:49:38.993Z,8.66
2022-10-12T22:52:08.993Z,8.82
2022-10-12T22:54:39.651Z,9.06
2022-10-12T22:57:09.706Z,8.91
2022-10-12T22:59:40.083Z,8.86
2022-10-12T23:02:12.666Z,8.72
2022-10-12T23:04:42.643Z,8.65
2022-10-12T23:07:12.727Z,8.59
2022-10-12T23:09:44.428Z,8.54
2022-10-12T23:12:14.389Z,8.54
2022-10-12T23:14:46.170Z,8.54
2022-10-12T23:17:18.771Z,8.52
2022-10-12T23:19:48.852Z,8.75
2022-10-12T23:22:19.247Z,8.84
2022-10-12T23:24:49.631Z,8.64
2022-10-12T23:27:20.555Z,8.77
2022-10-12T23:29:51.215Z,8.79
2022-10-12T23:32:23.904Z,8.79
2022-10-12T23:34:53.898Z,8.67
2022-10-12T23:37:24.065Z,8.68
2022-10-12T23:39:54.334Z,8.73
2022-10-12T23:42:24.497Z,8.72
2022-10-12T23:44:55.406Z,8.64
2022-10-12T23:47:28.396Z,8.81
2022-10-12T23:49:58.431Z,8.93
2022-10-12T23:52:29.090Z,8.81
2022-10-12T23:54:59.122Z,8.57
2022-10-12T23:57:46.246Z,8.55
